»·PEaware :: ETD816 KSFO-KLAX

ETD816 :: KSFO-KLAX

FLIGHT INFORMATION

Flight Status: Arrived
Operator:
Etihad Airways
More flights by this operator :: More flights under this callsign
Pilot: Brooks B. (6509)
Aircraft: Unknown
(B77L)
More flights by this aircraft type
Origin: KSFO San Francisco Intl
United States
Destination: KLAX Los Angeles Intl
United States
More flights between these airports :: More routes between these airports
Route: +SSTIK3 EBAYE IRNMN1
File this flight plan on PilotEdge
Remarks: PBN / A1B1C1D1L1O1S2 DOF / 180504 REG / A6DDE EET / KZLA0022 OPR / ETD PER / D RMK / TCAS SIMBRIEF
Altitude:
(Current/Filed)
33,000ft
Speed:
(Current/Filed)
470kts
Departed: 04-May-18 10:59 AM
Arrived: 04-May-18 11:54 AM
Distance/Time
Traveled:
294nm/0:55
Distance/Time
To Go:
Arrived

Flight Plot

Page will automatically refresh every two minutes.

Flight plan parsing failed; only flown route is shown


Map Options




Map Legend


Flown Route
Filed Route
Departure Airport
Arrival Airport
Navaid (VOR, NDB)
Fix

Horizontal Profiles

Position Reports

Time Latitude Longitude Heading Altitude Ground
Speed
04-May-18 10:05 37.625287 -122.398836 306 26ft 0kts
04-May-18 10:06 37.625287 -122.398836 306 26ft 0kts
04-May-18 10:07 37.625287 -122.398836 306 26ft 0kts
04-May-18 10:08 37.625287 -122.398836 306 26ft 0kts
04-May-18 10:09 37.625287 -122.398836 306 26ft 0kts
04-May-18 10:10 37.625287 -122.398836 306 26ft 0kts
04-May-18 10:11 37.625287 -122.398836 306 26ft 0kts
04-May-18 10:12 37.625287 -122.398836 306 26ft 0kts
04-May-18 10:13 37.625287 -122.398836 306 26ft 0kts
04-May-18 10:14 37.625287 -122.398836 306 26ft 0kts
04-May-18 10:15 37.625287 -122.398836 306 26ft 0kts
04-May-18 10:16 37.625287 -122.398836 306 26ft 0kts
04-May-18 10:17 37.625287 -122.398836 306 26ft 0kts
04-May-18 10:18 37.625287 -122.398836 306 26ft 0kts
04-May-18 10:19 37.625287 -122.398836 306 26ft 0kts
04-May-18 10:20 37.625287 -122.398836 306 26ft 0kts
04-May-18 10:21 37.625287 -122.398836 306 26ft 0kts
04-May-18 10:23 37.625287 -122.398836 306 26ft 0kts
04-May-18 10:24 37.625287 -122.398836 306 26ft 0kts
04-May-18 10:25 37.625287 -122.398836 306 26ft 0kts
04-May-18 10:26 37.625287 -122.398836 306 26ft 0kts
04-May-18 10:27 37.625287 -122.398836 306 26ft 0kts
04-May-18 10:28 37.625287 -122.398836 306 26ft 0kts
04-May-18 10:29 37.625287 -122.398836 306 26ft 0kts
04-May-18 10:30 37.625287 -122.398836 306 26ft 0kts
04-May-18 10:31 37.625287 -122.398836 306 26ft 0kts
04-May-18 10:32 37.625287 -122.398836 306 26ft 0kts
04-May-18 10:33 37.625287 -122.398836 306 26ft 0kts
04-May-18 10:34 37.625287 -122.398836 306 26ft 0kts
04-May-18 10:35 37.625287 -122.398836 306 26ft 0kts
04-May-18 10:36 37.625287 -122.398836 306 26ft 0kts
04-May-18 10:37 37.625287 -122.398836 306 26ft 0kts
04-May-18 10:38 37.625287 -122.398836 306 26ft 0kts
04-May-18 10:39 37.625287 -122.398836 306 26ft 0kts
04-May-18 10:40 37.625287 -122.398836 306 26ft 0kts
04-May-18 10:41 37.625281 -122.398825 306 26ft 0kts
04-May-18 10:42 37.624905 -122.398195 306 26ft 2kts
04-May-18 10:43 37.624747 -122.397930 306 26ft 0kts
04-May-18 10:44 37.624747 -122.397930 306 26ft 0kts
04-May-18 10:45 37.624747 -122.397930 306 26ft 0kts
04-May-18 10:46 37.625055 -122.397973 34 26ft 1kts
04-May-18 10:47 37.625132 -122.397747 86 26ft 0kts
04-May-18 10:48 37.625132 -122.397747 86 26ft 0kts
04-May-18 10:49 37.625291 -122.396370 74 26ft 10kts
04-May-18 10:50 37.625205 -122.393354 120 26ft 8kts
04-May-18 10:51 37.623646 -122.389781 117 26ft 12kts
04-May-18 10:52 37.622272 -122.386499 117 26ft 9kts
04-May-18 10:53 37.620630 -122.382558 117 26ft 16kts
04-May-18 10:54 37.618661 -122.379036 152 26ft 19kts
04-May-18 10:55 37.614187 -122.380331 207 26ft 15kts
04-May-18 10:56 37.610845 -122.382548 207 26ft 11kts
04-May-18 10:57 37.609510 -122.383251 161 26ft 0kts
04-May-18 10:58 37.609469 -122.381878 28 26ft 10kts
04-May-18 10:59 37.635572 -122.364554 21 963ft 178kts
04-May-18 11:00 37.690625 -122.365861 355 4220ft 242kts
04-May-18 11:01 37.722041 -122.437630 248 7852ft 281kts
04-May-18 11:02 37.654217 -122.466576 155 11627ft 315kts
04-May-18 11:03 37.562385 -122.457710 206 13378ft 370kts
04-May-18 11:04 37.464296 -122.452063 142 14761ft 386kts
04-May-18 11:05 37.393128 -122.347855 130 16172ft 398kts
04-May-18 11:06 37.317202 -122.240842 133 19511ft 421kts
04-May-18 11:07 37.235835 -122.130918 133 22104ft 440kts
04-May-18 11:08 37.150534 -122.015270 133 24709ft 461kts
04-May-18 11:09 37.060824 -121.894749 133 27929ft 487kts
04-May-18 11:10 36.967555 -121.770001 134 31748ft 488kts
04-May-18 11:11 36.874257 -121.645712 134 33290ft 486kts
04-May-18 11:12 36.781661 -121.522784 134 33271ft 486kts
04-May-18 11:13 36.688651 -121.399791 134 33270ft 486kts
04-May-18 11:14 36.596160 -121.277460 134 33278ft 486kts
04-May-18 11:15 36.503261 -121.155828 134 33269ft 485kts
04-May-18 11:16 36.410622 -121.033716 132 33270ft 485kts
04-May-18 11:17 36.323079 -120.906835 131 33271ft 484kts
04-May-18 11:18 36.235035 -120.780893 131 33273ft 483kts
04-May-18 11:19 36.147095 -120.654825 131 33273ft 482kts
04-May-18 11:20 36.059327 -120.529611 131 33272ft 482kts
04-May-18 11:21 35.971399 -120.405116 132 33272ft 481kts
04-May-18 11:22 35.882985 -120.281060 133 33270ft 480kts
04-May-18 11:23 35.778894 -120.179645 147 33271ft 477kts
04-May-18 11:24 35.668815 -120.087697 146 33265ft 477kts
04-May-18 11:25 35.559229 -119.995720 150 33259ft 477kts
04-May-18 11:26 35.442645 -119.918966 155 33255ft 476kts
04-May-18 11:27 35.324062 -119.845939 155 33257ft 476kts
04-May-18 11:28 35.214138 -119.755815 142 32911ft 474kts
04-May-18 11:29 35.111156 -119.658046 143 30722ft 466kts
04-May-18 11:30 35.008780 -119.562948 143 28614ft 456kts
04-May-18 11:31 34.906846 -119.468615 143 27926ft 459kts
04-May-18 11:32 34.805627 -119.378140 144 25845ft 444kts
04-May-18 11:33 34.708314 -119.291978 144 25133ft 420kts
04-May-18 11:34 34.614558 -119.210495 145 23282ft 411kts
04-May-18 11:35 34.522968 -119.130629 144 21498ft 399kts
04-May-18 11:36 34.433926 -119.051959 144 20449ft 391kts
04-May-18 11:36 34.362156 -118.989850 144 19394ft 372kts
04-May-18 11:37 34.278217 -118.914504 142 17168ft 378kts
04-May-18 11:38 34.196186 -118.839390 142 14768ft 348kts
04-May-18 11:39 34.126142 -118.769510 135 12377ft 309kts
04-May-18 11:40 34.065029 -118.702022 137 10309ft 282kts
04-May-18 11:41 34.025649 -118.625368 100 10006ft 282kts
04-May-18 11:42 34.017375 -118.531327 96 9220ft 279kts
04-May-18 11:43 34.013145 -118.438641 84 8068ft 277kts
04-May-18 11:44 34.028005 -118.352701 79 6472ft 251kts
04-May-18 11:45 34.036382 -118.269203 82 5643ft 248kts
04-May-18 11:46 34.044943 -118.185044 82 4139ft 247kts
04-May-18 11:47 34.030314 -118.117978 157 3052ft 207kts
04-May-18 11:48 33.982935 -118.150438 222 2980ft 204kts
04-May-18 11:49 33.971174 -118.213097 265 2987ft 193kts
04-May-18 11:50 33.964910 -118.276919 262 2171ft 181kts
04-May-18 11:51 33.959267 -118.332040 265 1281ft 149kts
04-May-18 11:52 33.954491 -118.379315 263 506ft 135kts
04-May-18 11:53 33.950565 -118.416512 256 140ft 32kts
04-May-18 11:54 33.949327 -118.419439 232 140ft 0kts
04-May-18 11:55 33.948227 -118.421198 233 140ft 12kts
04-May-18 11:56 33.946927 -118.421407 82 140ft 6kts
04-May-18 11:57 33.947126 -118.419428 82 140ft 0kts
04-May-18 11:58 33.947126 -118.419427 82 140ft 0kts
04-May-18 11:59 33.947128 -118.418413 125 140ft 8kts
04-May-18 12:00 33.945304 -118.418007 172 140ft 8kts
04-May-18 12:01 33.941502 -118.417452 172 140ft 14kts
04-May-18 12:02 33.938120 -118.416802 135 140ft 8kts
04-May-18 12:03 33.938205 -118.413557 82 140ft 9kts
04-May-18 12:04 33.938754 -118.408164 82 140ft 18kts
04-May-18 12:05 33.939344 -118.402441 82 140ft 15kts
04-May-18 12:06 33.939802 -118.397905 82 140ft 12kts
04-May-18 12:07 33.940187 -118.394233 82 140ft 15kts

Navigation Log

Ident Type
Flight plan parsing failed, navigation log unavailable